sensor_id;sensor_type;location;lat;lon;timestamp;P1;durP1;ratioP1;P2;durP2;ratioP2
65552;SDS011;52465;51.560;14.368;2022-11-18T00:02:00;4.90;;;3.78;;
65552;SDS011;52465;51.560;14.368;2022-11-18T00:04:25;4.63;;;3.75;;
65552;SDS011;52465;51.560;14.368;2022-11-18T00:06:51;4.57;;;3.20;;
65552;SDS011;52465;51.560;14.368;2022-11-18T00:09:16;6.70;;;4.10;;
65552;SDS011;52465;51.560;14.368;2022-11-18T00:11:41;4.45;;;3.25;;
65552;SDS011;52465;51.560;14.368;2022-11-18T00:14:25;4.82;;;3.47;;
65552;SDS011;52465;51.560;14.368;2022-11-18T00:16:55;4.70;;;3.20;;
65552;SDS011;52465;51.560;14.368;2022-11-18T00:19:30;5.82;;;3.83;;
65552;SDS011;52465;51.560;14.368;2022-11-18T00:22:01;4.95;;;3.42;;
65552;SDS011;52465;51.560;14.368;2022-11-18T00:24:27;5.57;;;3.78;;
65552;SDS011;52465;51.560;14.368;2022-11-18T00:26:52;5.88;;;3.47;;
65552;SDS011;52465;51.560;14.368;2022-11-18T00:29:19;6.15;;;3.83;;
65552;SDS011;52465;51.560;14.368;2022-11-18T00:31:45;5.68;;;3.67;;
65552;SDS011;52465;51.560;14.368;2022-11-18T00:34:11;5.13;;;3.63;;
65552;SDS011;52465;51.560;14.368;2022-11-18T00:36:38;4.57;;;3.20;;
65552;SDS011;52465;51.560;14.368;2022-11-18T00:39:04;6.00;;;3.70;;
65552;SDS011;52465;51.560;14.368;2022-11-18T00:41:29;5.57;;;3.85;;
65552;SDS011;52465;51.560;14.368;2022-11-18T00:44:15;5.13;;;3.67;;
65552;SDS011;52465;51.560;14.368;2022-11-18T00:46:40;5.22;;;3.50;;
65552;SDS011;52465;51.560;14.368;2022-11-18T00:49:06;5.85;;;3.60;;
65552;SDS011;52465;51.560;14.368;2022-11-18T00:51:31;5.07;;;3.53;;
65552;SDS011;52465;51.560;14.368;2022-11-18T00:53:57;4.78;;;3.88;;
65552;SDS011;52465;51.560;14.368;2022-11-18T00:56:22;6.10;;;3.60;;
65552;SDS011;52465;51.560;14.368;2022-11-18T00:58:48;5.85;;;3.22;;
65552;SDS011;52465;51.560;14.368;2022-11-18T01:01:13;3.90;;;3.28;;
65552;SDS011;52465;51.560;14.368;2022-11-18T01:03:38;6.28;;;3.85;;
65552;SDS011;52465;51.560;14.368;2022-11-18T01:06:03;5.60;;;3.53;;
65552;SDS011;52465;51.560;14.368;2022-11-18T01:08:29;4.63;;;3.42;;
65552;SDS011;52465;51.560;14.368;2022-11-18T01:10:54;4.82;;;3.65;;
65552;SDS011;52465;51.560;14.368;2022-11-18T01:13:39;5.75;;;3.78;;
65552;SDS011;52465;51.560;14.368;2022-11-18T01:16:04;5.72;;;3.90;;
65552;SDS011;52465;51.560;14.368;2022-11-18T01:18:30;6.00;;;3.67;;
65552;SDS011;52465;51.560;14.368;2022-11-18T01:20:58;4.57;;;3.53;;
65552;SDS011;52465;51.560;14.368;2022-11-18T01:23:25;4.70;;;3.58;;
65552;SDS011;52465;51.560;14.368;2022-11-18T01:25:50;5.90;;;3.90;;
65552;SDS011;52465;51.560;14.368;2022-11-18T01:28:16;6.15;;;3.50;;
65552;SDS011;52465;51.560;14.368;2022-11-18T01:30:42;5.50;;;3.67;;
65552;SDS011;52465;51.560;14.368;2022-11-18T01:33:08;4.45;;;3.50;;
65552;SDS011;52465;51.560;14.368;2022-11-18T01:35:34;5.70;;;3.65;;
65552;SDS011;52465;51.560;14.368;2022-11-18T01:38:01;6.00;;;3.67;;
65552;SDS011;52465;51.560;14.368;2022-11-18T01:40:27;4.38;;;3.28;;
65552;SDS011;52465;51.560;14.368;2022-11-18T01:42:53;5.03;;;3.50;;
65552;SDS011;52465;51.560;14.368;2022-11-18T01:45:26;6.03;;;4.15;;
65552;SDS011;52465;51.560;14.368;2022-11-18T01:50:25;6.13;;;3.63;;
65552;SDS011;52465;51.560;14.368;2022-11-18T01:52:52;5.32;;;3.63;;
65552;SDS011;52465;51.560;14.368;2022-11-18T01:55:23;5.80;;;3.70;;
65552;SDS011;52465;51.560;14.368;2022-11-18T01:57:51;6.68;;;3.72;;
65552;SDS011;52465;51.560;14.368;2022-11-18T02:00:20;4.28;;;3.58;;
65552;SDS011;52465;51.560;14.368;2022-11-18T02:02:46;4.57;;;3.55;;
65552;SDS011;52465;51.560;14.368;2022-11-18T02:05:12;4.97;;;3.42;;
65552;SDS011;52465;51.560;14.368;2022-11-18T02:07:39;6.65;;;3.60;;
65552;SDS011;52465;51.560;14.368;2022-11-18T02:10:07;6.50;;;3.67;;
65552;SDS011;52465;51.560;14.368;2022-11-18T02:12:40;6.75;;;3.75;;
65552;SDS011;52465;51.560;14.368;2022-11-18T02:15:06;4.32;;;3.35;;
65552;SDS011;52465;51.560;14.368;2022-11-18T02:17:44;6.22;;;3.38;;
65552;SDS011;52465;51.560;14.368;2022-11-18T02:20:26;5.82;;;3.78;;
65552;SDS011;52465;51.560;14.368;2022-11-18T02:28:55;5.97;;;3.80;;
65552;SDS011;52465;51.560;14.368;2022-11-18T02:31:48;6.25;;;3.78;;
65552;SDS011;52465;51.560;14.368;2022-11-18T02:37:20;5.70;;;3.70;;
65552;SDS011;52465;51.560;14.368;2022-11-18T02:39:51;4.90;;;3.72;;
65552;SDS011;52465;51.560;14.368;2022-11-18T02:42:21;4.95;;;3.60;;
65552;SDS011;52465;51.560;14.368;2022-11-18T02:44:52;6.80;;;3.70;;
65552;SDS011;52465;51.560;14.368;2022-11-18T02:47:22;5.38;;;3.75;;
65552;SDS011;52465;51.560;14.368;2022-11-18T02:49:52;6.78;;;3.88;;
65552;SDS011;52465;51.560;14.368;2022-11-18T02:52:23;6.55;;;3.63;;
65552;SDS011;52465;51.560;14.368;2022-11-18T02:54:51;7.15;;;4.13;;
65552;SDS011;52465;51.560;14.368;2022-11-18T02:57:18;4.70;;;3.40;;
65552;SDS011;52465;51.560;14.368;2022-11-18T02:59:45;5.03;;;3.47;;
65552;SDS011;52465;51.560;14.368;2022-11-18T03:02:16;4.90;;;3.80;;
65552;SDS011;52465;51.560;14.368;2022-11-18T03:04:44;6.25;;;3.97;;
65552;SDS011;52465;51.560;14.368;2022-11-18T03:09:54;5.53;;;3.88;;
65552;SDS011;52465;51.560;14.368;2022-11-18T03:12:24;5.53;;;3.95;;
65552;SDS011;52465;51.560;14.368;2022-11-18T03:18:15;5.00;;;3.22;;
65552;SDS011;52465;51.560;14.368;2022-11-18T03:20:48;5.10;;;3.65;;
65552;SDS011;52465;51.560;14.368;2022-11-18T03:23:23;5.60;;;4.00;;
65552;SDS011;52465;51.560;14.368;2022-11-18T03:28:42;6.47;;;4.03;;
65552;SDS011;52465;51.560;14.368;2022-11-18T03:31:14;6.45;;;3.45;;
65552;SDS011;52465;51.560;14.368;2022-11-18T03:33:50;5.47;;;3.85;;
65552;SDS011;52465;51.560;14.368;2022-11-18T03:36:21;6.60;;;4.32;;
65552;SDS011;52465;51.560;14.368;2022-11-18T03:38:49;7.50;;;4.30;;
65552;SDS011;52465;51.560;14.368;2022-11-18T03:41:18;5.50;;;4.05;;
65552;SDS011;52465;51.560;14.368;2022-11-18T03:43:47;5.65;;;3.70;;
65552;SDS011;52465;51.560;14.368;2022-11-18T03:46:17;6.50;;;4.40;;
65552;SDS011;52465;51.560;14.368;2022-11-18T03:48:48;6.72;;;4.10;;
65552;SDS011;52465;51.560;14.368;2022-11-18T03:51:21;6.22;;;3.72;;
65552;SDS011;52465;51.560;14.368;2022-11-18T03:53:52;5.47;;;3.65;;
65552;SDS011;52465;51.560;14.368;2022-11-18T03:56:27;8.35;;;3.85;;
65552;SDS011;52465;51.560;14.368;2022-11-18T03:58:56;7.45;;;4.20;;
65552;SDS011;52465;51.560;14.368;2022-11-18T04:01:32;6.35;;;3.97;;
65552;SDS011;52465;51.560;14.368;2022-11-18T04:04:03;5.45;;;4.20;;
65552;SDS011;52465;51.560;14.368;2022-11-18T04:06:36;5.85;;;4.20;;
65552;SDS011;52465;51.560;14.368;2022-11-18T04:09:17;6.22;;;4.18;;
65552;SDS011;52465;51.560;14.368;2022-11-18T04:11:49;5.85;;;3.45;;
65552;SDS011;52465;51.560;14.368;2022-11-18T04:14:32;6.88;;;4.18;;
65552;SDS011;52465;51.560;14.368;2022-11-18T04:16:59;6.25;;;3.83;;
65552;SDS011;52465;51.560;14.368;2022-11-18T04:19:29;6.10;;;3.97;;
65552;SDS011;52465;51.560;14.368;2022-11-18T04:21:54;7.93;;;4.47;;
65552;SDS011;52465;51.560;14.368;2022-11-18T04:24:19;5.90;;;4.00;;
65552;SDS011;52465;51.560;14.368;2022-11-18T04:26:44;5.97;;;4.22;;
65552;SDS011;52465;51.560;14.368;2022-11-18T04:29:10;6.50;;;4.10;;
65552;SDS011;52465;51.560;14.368;2022-11-18T04:31:35;7.97;;;4.40;;
65552;SDS011;52465;51.560;14.368;2022-11-18T04:34:00;6.63;;;3.97;;
65552;SDS011;52465;51.560;14.368;2022-11-18T04:36:25;6.65;;;4.07;;
65552;SDS011;52465;51.560;14.368;2022-11-18T04:38:51;6.95;;;4.00;;
65552;SDS011;52465;51.560;14.368;2022-11-18T04:41:16;7.30;;;4.40;;
65552;SDS011;52465;51.560;14.368;2022-11-18T04:43:41;6.07;;;4.30;;
65552;SDS011;52465;51.560;14.368;2022-11-18T04:46:07;7.03;;;4.38;;
65552;SDS011;52465;51.560;14.368;2022-11-18T04:48:32;7.43;;;4.45;;
65552;SDS011;52465;51.560;14.368;2022-11-18T04:51:01;8.13;;;4.28;;
65552;SDS011;52465;51.560;14.368;2022-11-18T04:53:28;7.03;;;4.32;;
65552;SDS011;52465;51.560;14.368;2022-11-18T04:56:02;6.32;;;4.28;;
65552;SDS011;52465;51.560;14.368;2022-11-18T04:58:28;6.68;;;4.20;;
65552;SDS011;52465;51.560;14.368;2022-11-18T05:00:53;6.55;;;4.30;;
65552;SDS011;52465;51.560;14.368;2022-11-18T05:03:19;6.95;;;4.65;;
65552;SDS011;52465;51.560;14.368;2022-11-18T05:05:44;7.57;;;4.25;;
65552;SDS011;52465;51.560;14.368;2022-11-18T05:08:09;6.30;;;4.25;;
65552;SDS011;52465;51.560;14.368;2022-11-18T05:10:34;6.75;;;4.70;;
65552;SDS011;52465;51.560;14.368;2022-11-18T05:13:02;7.43;;;3.95;;
65552;SDS011;52465;51.560;14.368;2022-11-18T05:15:27;6.30;;;4.50;;
65552;SDS011;52465;51.560;14.368;2022-11-18T05:17:52;6.85;;;4.03;;
65552;SDS011;52465;51.560;14.368;2022-11-18T05:20:18;8.10;;;4.30;;
65552;SDS011;52465;51.560;14.368;2022-11-18T05:22:43;7.55;;;4.28;;
65552;SDS011;52465;51.560;14.368;2022-11-18T05:25:08;6.72;;;4.05;;
65552;SDS011;52465;51.560;14.368;2022-11-18T05:27:34;7.72;;;4.75;;
65552;SDS011;52465;51.560;14.368;2022-11-18T05:29:59;6.97;;;4.63;;
65552;SDS011;52465;51.560;14.368;2022-11-18T05:32:24;5.75;;;4.18;;
65552;SDS011;52465;51.560;14.368;2022-11-18T05:34:50;7.50;;;4.10;;
65552;SDS011;52465;51.560;14.368;2022-11-18T05:37:15;8.38;;;5.10;;
65552;SDS011;52465;51.560;14.368;2022-11-18T05:39:40;7.05;;;4.45;;
65552;SDS011;52465;51.560;14.368;2022-11-18T05:42:06;8.02;;;4.55;;
65552;SDS011;52465;51.560;14.368;2022-11-18T05:44:50;8.40;;;4.45;;
65552;SDS011;52465;51.560;14.368;2022-11-18T05:47:16;7.70;;;4.80;;
65552;SDS011;52465;51.560;14.368;2022-11-18T05:49:42;10.18;;;5.05;;
65552;SDS011;52465;51.560;14.368;2022-11-18T05:52:07;7.55;;;4.95;;
65552;SDS011;52465;51.560;14.368;2022-11-18T05:54:32;8.32;;;5.00;;
65552;SDS011;52465;51.560;14.368;2022-11-18T05:56:57;7.00;;;5.00;;
65552;SDS011;52465;51.560;14.368;2022-11-18T05:59:24;7.55;;;5.20;;
65552;SDS011;52465;51.560;14.368;2022-11-18T06:04:31;9.10;;;5.53;;
65552;SDS011;52465;51.560;14.368;2022-11-18T06:07:19;9.45;;;5.60;;
65552;SDS011;52465;51.560;14.368;2022-11-18T06:09:48;8.68;;;5.45;;
65552;SDS011;52465;51.560;14.368;2022-11-18T06:12:19;9.00;;;5.03;;
65552;SDS011;52465;51.560;14.368;2022-11-18T06:14:52;8.68;;;5.25;;
65552;SDS011;52465;51.560;14.368;2022-11-18T06:17:25;10.48;;;5.80;;
65552;SDS011;52465;51.560;14.368;2022-11-18T06:19:56;9.25;;;5.15;;
65552;SDS011;52465;51.560;14.368;2022-11-18T06:22:22;9.52;;;5.55;;
65552;SDS011;52465;51.560;14.368;2022-11-18T06:24:47;8.55;;;5.55;;
65552;SDS011;52465;51.560;14.368;2022-11-18T06:27:13;9.02;;;5.53;;
65552;SDS011;52465;51.560;14.368;2022-11-18T06:29:39;8.50;;;5.68;;
65552;SDS011;52465;51.560;14.368;2022-11-18T06:32:05;8.00;;;5.38;;
65552;SDS011;52465;51.560;14.368;2022-11-18T06:34:31;10.13;;;5.60;;
65552;SDS011;52465;51.560;14.368;2022-11-18T06:36:56;9.43;;;5.57;;
65552;SDS011;52465;51.560;14.368;2022-11-18T06:39:22;9.88;;;6.03;;
65552;SDS011;52465;51.560;14.368;2022-11-18T06:41:47;9.23;;;5.28;;
65552;SDS011;52465;51.560;14.368;2022-11-18T06:44:12;10.13;;;5.97;;
65552;SDS011;52465;51.560;14.368;2022-11-18T06:46:37;9.15;;;5.88;;
65552;SDS011;52465;51.560;14.368;2022-11-18T06:49:22;11.77;;;6.43;;
65552;SDS011;52465;51.560;14.368;2022-11-18T06:51:48;10.00;;;6.50;;
65552;SDS011;52465;51.560;14.368;2022-11-18T06:54:13;9.23;;;5.75;;
65552;SDS011;52465;51.560;14.368;2022-11-18T06:56:38;11.18;;;6.32;;
65552;SDS011;52465;51.560;14.368;2022-11-18T06:59:04;13.50;;;6.57;;
65552;SDS011;52465;51.560;14.368;2022-11-18T07:01:30;12.55;;;6.40;;
65552;SDS011;52465;51.560;14.368;2022-11-18T07:03:58;9.48;;;5.97;;
65552;SDS011;52465;51.560;14.368;2022-11-18T07:06:25;9.30;;;6.25;;
65552;SDS011;52465;51.560;14.368;2022-11-18T07:08:52;9.20;;;6.13;;
65552;SDS011;52465;51.560;14.368;2022-11-18T07:11:19;10.02;;;6.40;;
65552;SDS011;52465;51.560;14.368;2022-11-18T07:13:46;10.48;;;5.70;;
65552;SDS011;52465;51.560;14.368;2022-11-18T07:16:12;9.82;;;6.65;;
65552;SDS011;52465;51.560;14.368;2022-11-18T07:18:42;10.30;;;6.57;;
65552;SDS011;52465;51.560;14.368;2022-11-18T07:21:09;10.93;;;6.53;;
65552;SDS011;52465;51.560;14.368;2022-11-18T07:23:37;11.75;;;6.53;;
65552;SDS011;52465;51.560;14.368;2022-11-18T07:26:02;8.95;;;5.57;;
65552;SDS011;52465;51.560;14.368;2022-11-18T07:28:28;11.15;;;6.13;;
65552;SDS011;52465;51.560;14.368;2022-11-18T07:33:30;11.18;;;6.20;;
65552;SDS011;52465;51.560;14.368;2022-11-18T07:36:03;11.00;;;6.28;;
65552;SDS011;52465;51.560;14.368;2022-11-18T07:38:31;10.55;;;6.45;;
65552;SDS011;52465;51.560;14.368;2022-11-18T07:41:09;11.63;;;7.18;;
65552;SDS011;52465;51.560;14.368;2022-11-18T07:43:35;11.60;;;7.13;;
65552;SDS011;52465;51.560;14.368;2022-11-18T07:46:14;11.90;;;7.32;;
65552;SDS011;52465;51.560;14.368;2022-11-18T07:48:45;11.73;;;7.00;;
65552;SDS011;52465;51.560;14.368;2022-11-18T07:51:12;12.07;;;7.28;;
65552;SDS011;52465;51.560;14.368;2022-11-18T07:53:39;13.52;;;7.10;;
65552;SDS011;52465;51.560;14.368;2022-11-18T07:56:04;12.48;;;7.05;;
65552;SDS011;52465;51.560;14.368;2022-11-18T07:58:31;10.93;;;6.93;;
65552;SDS011;52465;51.560;14.368;2022-11-18T08:01:09;12.43;;;7.50;;
65552;SDS011;52465;51.560;14.368;2022-11-18T08:03:37;12.80;;;7.47;;
65552;SDS011;52465;51.560;14.368;2022-11-18T08:06:03;13.02;;;8.02;;
65552;SDS011;52465;51.560;14.368;2022-11-18T08:08:29;11.88;;;7.38;;
65552;SDS011;52465;51.560;14.368;2022-11-18T08:10:55;11.40;;;7.07;;
65552;SDS011;52465;51.560;14.368;2022-11-18T08:13:21;12.00;;;7.50;;
65552;SDS011;52465;51.560;14.368;2022-11-18T08:15:49;11.77;;;7.93;;
65552;SDS011;52465;51.560;14.368;2022-11-18T08:18:15;14.07;;;8.02;;
65552;SDS011;52465;51.560;14.368;2022-11-18T08:20:40;12.68;;;8.07;;
65552;SDS011;52465;51.560;14.368;2022-11-18T08:23:05;12.13;;;7.63;;
65552;SDS011;52465;51.560;14.368;2022-11-18T08:25:31;13.48;;;7.78;;
65552;SDS011;52465;51.560;14.368;2022-11-18T08:27:56;12.35;;;7.60;;
65552;SDS011;52465;51.560;14.368;2022-11-18T08:30:21;12.15;;;7.32;;
65552;SDS011;52465;51.560;14.368;2022-11-18T08:32:47;12.85;;;7.82;;
65552;SDS011;52465;51.560;14.368;2022-11-18T08:35:12;13.80;;;8.00;;
65552;SDS011;52465;51.560;14.368;2022-11-18T08:37:37;12.40;;;7.53;;
65552;SDS011;52465;51.560;14.368;2022-11-18T08:40:03;13.90;;;7.68;;
65552;SDS011;52465;51.560;14.368;2022-11-18T08:42:28;12.65;;;7.38;;
65552;SDS011;52465;51.560;14.368;2022-11-18T08:44:54;12.70;;;7.40;;
65552;SDS011;52465;51.560;14.368;2022-11-18T08:47:19;12.18;;;7.03;;
65552;SDS011;52465;51.560;14.368;2022-11-18T08:49:45;11.93;;;7.50;;
65552;SDS011;52465;51.560;14.368;2022-11-18T08:52:10;12.73;;;8.23;;
65552;SDS011;52465;51.560;14.368;2022-11-18T08:54:35;11.75;;;7.40;;
65552;SDS011;52465;51.560;14.368;2022-11-18T08:57:01;13.18;;;7.47;;
65552;SDS011;52465;51.560;14.368;2022-11-18T08:59:26;13.75;;;8.18;;
65552;SDS011;52465;51.560;14.368;2022-11-18T09:01:51;13.40;;;7.60;;
65552;SDS011;52465;51.560;14.368;2022-11-18T09:04:17;16.15;;;8.60;;
65552;SDS011;52465;51.560;14.368;2022-11-18T09:06:42;12.18;;;8.20;;
65552;SDS011;52465;51.560;14.368;2022-11-18T09:09:08;14.15;;;7.88;;
65552;SDS011;52465;51.560;14.368;2022-11-18T09:11:34;12.27;;;7.70;;
65552;SDS011;52465;51.560;14.368;2022-11-18T09:14:00;12.63;;;8.18;;
65552;SDS011;52465;51.560;14.368;2022-11-18T09:16:26;13.32;;;8.15;;
65552;SDS011;52465;51.560;14.368;2022-11-18T09:18:53;13.18;;;7.68;;
65552;SDS011;52465;51.560;14.368;2022-11-18T09:21:19;14.00;;;8.13;;
65552;SDS011;52465;51.560;14.368;2022-11-18T09:23:45;13.65;;;8.38;;
65552;SDS011;52465;51.560;14.368;2022-11-18T09:26:11;12.15;;;6.82;;
65552;SDS011;52465;51.560;14.368;2022-11-18T09:28:38;11.38;;;7.28;;
65552;SDS011;52465;51.560;14.368;2022-11-18T09:31:07;13.70;;;7.70;;
65552;SDS011;52465;51.560;14.368;2022-11-18T09:33:35;10.57;;;7.40;;
65552;SDS011;52465;51.560;14.368;2022-11-18T09:36:01;13.50;;;8.18;;
65552;SDS011;52465;51.560;14.368;2022-11-18T09:38:28;12.48;;;8.57;;
65552;SDS011;52465;51.560;14.368;2022-11-18T09:43:53;13.15;;;8.13;;
65552;SDS011;52465;51.560;14.368;2022-11-18T09:49:21;14.13;;;8.10;;
65552;SDS011;52465;51.560;14.368;2022-11-18T09:51:49;14.15;;;8.25;;
65552;SDS011;52465;51.560;14.368;2022-11-18T09:54:18;13.75;;;8.65;;
65552;SDS011;52465;51.560;14.368;2022-11-18T09:56:46;14.20;;;8.07;;
65552;SDS011;52465;51.560;14.368;2022-11-18T09:59:12;12.75;;;8.23;;
65552;SDS011;52465;51.560;14.368;2022-11-18T10:01:39;14.35;;;7.93;;
65552;SDS011;52465;51.560;14.368;2022-11-18T10:04:05;14.15;;;8.60;;
65552;SDS011;52465;51.560;14.368;2022-11-18T10:09:21;14.15;;;7.93;;
65552;SDS011;52465;51.560;14.368;2022-11-18T10:12:02;13.90;;;8.23;;
65552;SDS011;52465;51.560;14.368;2022-11-18T10:14:49;13.52;;;8.13;;
65552;SDS011;52465;51.560;14.368;2022-11-18T10:22:48;12.23;;;7.13;;
65552;SDS011;52465;51.560;14.368;2022-11-18T10:25:22;14.10;;;8.70;;
65552;SDS011;52465;51.560;14.368;2022-11-18T10:27:48;12.55;;;7.50;;
65552;SDS011;52465;51.560;14.368;2022-11-18T10:30:18;12.65;;;8.00;;
65552;SDS011;52465;51.560;14.368;2022-11-18T10:32:55;13.27;;;8.30;;
65552;SDS011;52465;51.560;14.368;2022-11-18T10:35:34;11.88;;;7.88;;
65552;SDS011;52465;51.560;14.368;2022-11-18T10:38:03;14.75;;;7.95;;
65552;SDS011;52465;51.560;14.368;2022-11-18T10:40:43;13.25;;;7.97;;
65552;SDS011;52465;51.560;14.368;2022-11-18T10:51:44;12.75;;;8.10;;
65552;SDS011;52465;51.560;14.368;2022-11-18T10:56:44;14.07;;;8.07;;
65552;SDS011;52465;51.560;14.368;2022-11-18T10:59:37;12.00;;;7.30;;
65552;SDS011;52465;51.560;14.368;2022-11-18T11:02:18;11.23;;;7.07;;
65552;SDS011;52465;51.560;14.368;2022-11-18T11:04:47;13.18;;;8.35;;
65552;SDS011;52465;51.560;14.368;2022-11-18T11:12:36;12.38;;;8.45;;
65552;SDS011;52465;51.560;14.368;2022-11-18T11:15:15;12.85;;;8.32;;
65552;SDS011;52465;51.560;14.368;2022-11-18T11:17:48;14.13;;;8.75;;
65552;SDS011;52465;51.560;14.368;2022-11-18T11:23:07;12.15;;;8.25;;
65552;SDS011;52465;51.560;14.368;2022-11-18T11:25:47;12.20;;;8.05;;
65552;SDS011;52465;51.560;14.368;2022-11-18T11:28:30;12.63;;;8.00;;
65552;SDS011;52465;51.560;14.368;2022-11-18T11:31:27;13.35;;;8.18;;
65552;SDS011;52465;51.560;14.368;2022-11-18T11:34:06;12.88;;;8.70;;
65552;SDS011;52465;51.560;14.368;2022-11-18T11:42:44;14.23;;;8.65;;
65552;SDS011;52465;51.560;14.368;2022-11-18T11:45:37;14.13;;;8.88;;
65552;SDS011;52465;51.560;14.368;2022-11-18T11:48:19;16.75;;;8.95;;
65552;SDS011;52465;51.560;14.368;2022-11-18T11:51:02;14.38;;;8.75;;
65552;SDS011;52465;51.560;14.368;2022-11-18T11:56:22;13.23;;;9.23;;
65552;SDS011;52465;51.560;14.368;2022-11-18T12:04:05;14.02;;;9.13;;
65552;SDS011;52465;51.560;14.368;2022-11-18T12:06:48;13.75;;;8.75;;
65552;SDS011;52465;51.560;14.368;2022-11-18T12:09:20;13.43;;;8.80;;
65552;SDS011;52465;51.560;14.368;2022-11-18T12:11:54;14.55;;;8.52;;
65552;SDS011;52465;51.560;14.368;2022-11-18T12:14:33;14.52;;;8.57;;
65552;SDS011;52465;51.560;14.368;2022-11-18T12:17:13;13.48;;;8.45;;
65552;SDS011;52465;51.560;14.368;2022-11-18T12:19:47;14.27;;;8.18;;
65552;SDS011;52465;51.560;14.368;2022-11-18T12:22:12;12.75;;;8.77;;
65552;SDS011;52465;51.560;14.368;2022-11-18T12:24:38;15.13;;;9.48;;
65552;SDS011;52465;51.560;14.368;2022-11-18T12:29:59;13.88;;;8.57;;
65552;SDS011;52465;51.560;14.368;2022-11-18T12:37:41;15.25;;;8.63;;
65552;SDS011;52465;51.560;14.368;2022-11-18T12:40:11;13.32;;;8.20;;
65552;SDS011;52465;51.560;14.368;2022-11-18T12:42:56;19.48;;;8.95;;
65552;SDS011;52465;51.560;14.368;2022-11-18T12:48:25;14.73;;;8.30;;
65552;SDS011;52465;51.560;14.368;2022-11-18T12:50:52;17.42;;;8.98;;
65552;SDS011;52465;51.560;14.368;2022-11-18T12:56:11;17.27;;;8.80;;
65552;SDS011;52465;51.560;14.368;2022-11-18T12:58:47;13.77;;;8.48;;
65552;SDS011;52465;51.560;14.368;2022-11-18T13:01:15;20.85;;;8.88;;
65552;SDS011;52465;51.560;14.368;2022-11-18T13:03:42;21.48;;;9.20;;
65552;SDS011;52465;51.560;14.368;2022-11-18T13:06:22;20.42;;;9.63;;
65552;SDS011;52465;51.560;14.368;2022-11-18T13:08:50;17.05;;;8.75;;
65552;SDS011;52465;51.560;14.368;2022-11-18T13:11:18;24.67;;;9.88;;
65552;SDS011;52465;51.560;14.368;2022-11-18T13:14:03;20.15;;;9.38;;
65552;SDS011;52465;51.560;14.368;2022-11-18T13:16:48;21.27;;;10.30;;
65552;SDS011;52465;51.560;14.368;2022-11-18T13:19:53;17.55;;;8.93;;
65552;SDS011;52465;51.560;14.368;2022-11-18T13:22:20;18.48;;;9.68;;
65552;SDS011;52465;51.560;14.368;2022-11-18T13:25:04;18.05;;;9.75;;
65552;SDS011;52465;51.560;14.368;2022-11-18T13:30:15;21.83;;;8.50;;
65552;SDS011;52465;51.560;14.368;2022-11-18T13:32:42;19.35;;;8.57;;
65552;SDS011;52465;51.560;14.368;2022-11-18T13:37:37;24.13;;;10.77;;
65552;SDS011;52465;51.560;14.368;2022-11-18T13:40:21;21.40;;;10.15;;
65552;SDS011;52465;51.560;14.368;2022-11-18T13:42:50;18.05;;;10.05;;
65552;SDS011;52465;51.560;14.368;2022-11-18T13:45:15;17.40;;;9.75;;
65552;SDS011;52465;51.560;14.368;2022-11-18T13:47:49;20.77;;;9.93;;
65552;SDS011;52465;51.560;14.368;2022-11-18T13:50:36;16.67;;;9.02;;
65552;SDS011;52465;51.560;14.368;2022-11-18T13:53:13;17.77;;;9.52;;
65552;SDS011;52465;51.560;14.368;2022-11-18T14:01:02;18.05;;;9.43;;
65552;SDS011;52465;51.560;14.368;2022-11-18T14:03:47;22.17;;;10.27;;
65552;SDS011;52465;51.560;14.368;2022-11-18T14:06:27;20.45;;;9.55;;
65552;SDS011;52465;51.560;14.368;2022-11-18T14:11:45;17.58;;;9.25;;
65552;SDS011;52465;51.560;14.368;2022-11-18T14:14:29;16.58;;;9.30;;
65552;SDS011;52465;51.560;14.368;2022-11-18T14:19:42;18.23;;;9.57;;
65552;SDS011;52465;51.560;14.368;2022-11-18T14:22:11;17.15;;;9.75;;
65552;SDS011;52465;51.560;14.368;2022-11-18T14:24:39;16.60;;;9.02;;
65552;SDS011;52465;51.560;14.368;2022-11-18T14:30:02;14.77;;;9.00;;
65552;SDS011;52465;51.560;14.368;2022-11-18T14:33:02;17.05;;;9.35;;
65552;SDS011;52465;51.560;14.368;2022-11-18T14:35:27;16.50;;;8.80;;
65552;SDS011;52465;51.560;14.368;2022-11-18T14:37:53;14.32;;;9.00;;
65552;SDS011;52465;51.560;14.368;2022-11-18T14:40:19;14.85;;;8.25;;
65552;SDS011;52465;51.560;14.368;2022-11-18T14:42:44;13.20;;;8.40;;
65552;SDS011;52465;51.560;14.368;2022-11-18T14:45:10;15.05;;;8.50;;
65552;SDS011;52465;51.560;14.368;2022-11-18T14:47:35;13.85;;;8.38;;
65552;SDS011;52465;51.560;14.368;2022-11-18T14:50:00;13.52;;;8.02;;
65552;SDS011;52465;51.560;14.368;2022-11-18T14:52:26;14.77;;;8.00;;
65552;SDS011;52465;51.560;14.368;2022-11-18T14:54:51;12.75;;;7.70;;
65552;SDS011;52465;51.560;14.368;2022-11-18T14:57:16;12.27;;;7.70;;
65552;SDS011;52465;51.560;14.368;2022-11-18T14:59:43;15.07;;;7.53;;
65552;SDS011;52465;51.560;14.368;2022-11-18T15:02:11;15.35;;;7.72;;
65552;SDS011;52465;51.560;14.368;2022-11-18T15:04:38;16.93;;;7.97;;
65552;SDS011;52465;51.560;14.368;2022-11-18T15:07:03;14.23;;;7.75;;
65552;SDS011;52465;51.560;14.368;2022-11-18T15:09:29;15.70;;;6.88;;
65552;SDS011;52465;51.560;14.368;2022-11-18T15:11:54;11.40;;;6.68;;
65552;SDS011;52465;51.560;14.368;2022-11-18T15:14:19;15.93;;;6.78;;
65552;SDS011;52465;51.560;14.368;2022-11-18T15:16:44;24.42;;;7.63;;
65552;SDS011;52465;51.560;14.368;2022-11-18T15:19:12;27.25;;;8.27;;
65552;SDS011;52465;51.560;14.368;2022-11-18T15:21:39;26.92;;;7.18;;
65552;SDS011;52465;51.560;14.368;2022-11-18T15:24:04;18.33;;;7.35;;
65552;SDS011;52465;51.560;14.368;2022-11-18T15:26:37;15.57;;;7.55;;
65552;SDS011;52465;51.560;14.368;2022-11-18T15:29:04;21.48;;;7.38;;
65552;SDS011;52465;51.560;14.368;2022-11-18T15:31:29;17.17;;;7.80;;
65552;SDS011;52465;51.560;14.368;2022-11-18T15:33:54;16.33;;;6.55;;
65552;SDS011;52465;51.560;14.368;2022-11-18T15:36:21;17.58;;;7.05;;
65552;SDS011;52465;51.560;14.368;2022-11-18T15:38:49;12.57;;;6.50;;
65552;SDS011;52465;51.560;14.368;2022-11-18T15:41:16;12.85;;;7.15;;
65552;SDS011;52465;51.560;14.368;2022-11-18T15:43:44;11.98;;;6.60;;
65552;SDS011;52465;51.560;14.368;2022-11-18T15:46:09;15.25;;;6.50;;
65552;SDS011;52465;51.560;14.368;2022-11-18T15:48:35;14.30;;;6.55;;
65552;SDS011;52465;51.560;14.368;2022-11-18T15:51:00;14.77;;;7.07;;
65552;SDS011;52465;51.560;14.368;2022-11-18T15:53:25;15.35;;;6.78;;
65552;SDS011;52465;51.560;14.368;2022-11-18T15:55:51;11.43;;;6.80;;
65552;SDS011;52465;51.560;14.368;2022-11-18T15:58:16;13.32;;;6.50;;
65552;SDS011;52465;51.560;14.368;2022-11-18T16:00:41;14.20;;;6.68;;
65552;SDS011;52465;51.560;14.368;2022-11-18T16:03:06;11.27;;;6.45;;
65552;SDS011;52465;51.560;14.368;2022-11-18T16:05:32;10.07;;;5.57;;
65552;SDS011;52465;51.560;14.368;2022-11-18T16:07:57;10.88;;;5.93;;
65552;SDS011;52465;51.560;14.368;2022-11-18T16:10:22;8.90;;;4.93;;
65552;SDS011;52465;51.560;14.368;2022-11-18T16:13:06;11.00;;;4.72;;
65552;SDS011;52465;51.560;14.368;2022-11-18T16:15:32;10.35;;;5.90;;
65552;SDS011;52465;51.560;14.368;2022-11-18T16:18:07;8.20;;;5.40;;
65552;SDS011;52465;51.560;14.368;2022-11-18T16:20:34;8.73;;;5.15;;
65552;SDS011;52465;51.560;14.368;2022-11-18T16:23:00;10.98;;;5.18;;
65552;SDS011;52465;51.560;14.368;2022-11-18T16:25:25;10.40;;;5.88;;
65552;SDS011;52465;51.560;14.368;2022-11-18T16:27:52;10.77;;;5.43;;